| Record Date MM/DD/YYYY | Record Julian Date NNN day of the year | Air Temperature Max (Degrees Fahrenheit F) | Time Max Air Temperature HH:MM:SS This is the time of max air temperature standard time. | Air Temperature Min (Degrees Fahrenheit F) | Time Min Air Temperature HH:MM:SS This is the time of min air temperature standard time. | Air Temperature Observed (Degrees Fahrenheit F) This is an instantaneous reading for air temperature at 7:00:00 standard time. | Relative Humidity Max (Percent) | Time Max Relative Humidity HH:MM:SS This is the time of max relative humidity standard time. | Relative Humidity Min (Percent) | Time Min Relative Humidity HH:MM:SS This is the time of min relative humidity standard time. | Relative Humidity Observed (Percent) This is an instantaneous reading at 7:00:00 standard time. | Precipitation (Inches n.nn) total rain fall that occurred for the day. | Pan Evaporation (Inches n.nn) total evaporation that occured for the day. | Wind Run (Miles) Wind travel for the day. | Wind Speed (Miles Per Hour) Resultant / Average speed for the day. | Wind Direction (Degrees) Resultant Direction for the day | Solar Radiation (Langley's) that occurred for the day. | Soil Temperature Max at 2 inch depth (Degrees Fahrenheit F) that occurred during the day. | Time Max Soil temperature at 2 inches HH:MM:SS This is the time of max 2 inch soil temperature standard time. | Soil Temperature Min at 2 inch depth (Degrees Fahrenheit F) that occurred during the day. | Time Min Soil temperature at 2 inches HH:MM:SS This is the time of min 2 inch soil temperature standard time. | Soil Temperature Observed at 2 inch depth (Degrees Fahrenheit F) This is an instantaneous reading 2 inch soil temperature at 7:00:00 standard time. | Soil Temperature Max at 4 inch depth (Degrees Fahrenheit F) that occurred during the day. | Time Max Soil temperature at 4 inches HH:MM:SS This is the time of max 4 inch soil temperature standard time. | Soil Temperature Min at 4 inch depth (Degrees Fahrenheit F) that occurred during the day. | Time Min Soil temperature at 4 inches HH:MM:SS This is the time of min 4 inch soil temperature standard time. | Soil Temperature Observed at 4 inch depth (Degrees Fahrenheit F) This is an instantaneous reading 4 inch soil temperature at 7:00:00 standard time. | DD50 Degree Days 50 Fahrenheit. | Adjusted DD50 Degree Days 50 Fahrenheit adjusted for latitude. | DD60 Degree Days 60 Fahrenheit. |
|---|---|---|---|---|---|---|---|---|---|---|---|---|---|---|---|---|---|---|---|---|---|---|---|---|---|---|---|---|---|---|
| 08/01/2026 | 213 | 93 | 13:07:04 | 72 | 23:59:00 | 80 | 100 | 0:00:00 | 59 | 14:58:01 | 87 | 0.1 | 145 | 6.1 | 243 | 441 | 87 | 13:34:02 | 81 | 5:36:00 | 81 | 86 | 16:33:00 | 82 | 6:44:04 | 82 | 32.5 | 27.17 | 22.5 | |
| 08/02/2026 | 214 | 81 | 12:49:05 | 68 | 5:15:04 | 70 | 96 | 23:56:04 | 61 | 12:37:04 | 91 | 0 | 82 | 3.4 | 307 | 350 | 85 | 13:14:01 | 79 | 6:22:01 | 79 | 83 | 16:21:05 | 80 | 8:04:03 | 80 | 24.5 | 25.64 | 14.5 | |
| 08/03/2026 | 215 | 88 | 15:11:03 | 69 | 2:45:02 | 72 | 99 | 23:03:00 | 51 | 15:03:05 | 91 | 0 | 74 | 3.1 | 329 | 437 | 86 | 15:54:03 | 79 | 5:39:01 | 79 | 84 | 17:14:02 | 79 | 6:49:02 | 79 | 28.5 | 27.11 | 18.5 | |
| 08/04/2026 | 216 | 90 | 16:12:04 | 69 | 5:36:03 | 73 | 100 | 4:14:00 | 45 | 12:57:00 | 93 | 0 | 51 | 2.1 | 329 | 590 | 88 | 14:56:05 | 78 | 6:24:01 | 78 | 86 | 16:36:01 | 79 | 7:06:01 | 79 | 29.5 | 27.08 | 19.5 | |
| 08/05/2026 | 217 | 93 | 14:48:05 | 70 | 5:22:05 | 76 | 99 | 5:35:04 | 42 | 12:51:01 | 90 | 0 | 32 | 1.3 | 338 | 509 | 89 | 15:08:02 | 79 | 6:03:02 | 79 | 87 | 16:43:03 | 80 | 6:59:04 | 80 | 31.5 | 27.05 | 21.5 | |
| 08/06/2026 | 218 | 95 | 16:13:02 | 71 | 5:21:01 | 77 | 100 | 5:27:04 | 36 | 12:46:04 | 88 | 0 | 31 | 1.3 | 112 | 470 | 89 | 13:29:03 | 80 | 6:15:03 | 80 | 87 | 16:58:00 | 81 | 7:02:00 | 81 | 33 | 27.01 | 23 | |
| 08/07/2026 | 219 | 94 | 14:52:00 | 72 | 5:23:01 | 77 | 100 | 23:41:01 | 47 | 14:35:00 | 85 | 0.23 | 57 | 2.4 | 166 | 482 | 90 | 15:08:04 | 81 | 6:33:03 | 81 | 87 | 16:39:01 | 82 | 7:04:03 | 82 | 33 | 26.98 | 23 | |
| 08/08/2026 | 220 | 91 | 12:54:03 | 73 | 4:13:02 | 76 | 100 | 4:30:04 | 62 | 13:08:05 | 96 | 1.08 | 51 | 2.1 | 66 | 379 | 89 | 14:41:04 | 80 | 16:21:05 | 81 | 87 | 15:36:03 | 81 | 7:03:03 | 81 | 32 | 26.95 | 22 | |
| 08/09/2026 | 221 | 93 | 12:54:01 | 32 | 0:27:05 | 74 | 100 | 0:00:00 | 52 | 13:08:05 | 100 | 0.01 | 42 | 1.8 | 103 | 418 | 91 | 13:26:00 | 79 | 5:42:00 | 79 | 87 | 14:10:01 | 80 | 6:19:05 | 80 | 12.5 | 13.41 | 2.5 | |
| 08/10/2026 | 222 | 92 | 13:17:00 | 72 | 4:26:01 | 79 | 100 | 4:59:01 | 58 | 11:09:03 | 85 | 0.69 | 46 | 1.9 | 111 | 405 | 89 | 13:36:01 | 80 | 5:59:02 | 80 | 86 | 13:59:02 | 81 | 6:58:05 | 81 | 32 | 26.88 | 22 | |
| 08/11/2026 | 223 | 93 | 16:29:03 | 74 | 4:59:05 | 80 | 99 | 5:31:02 | 52 | 16:24:04 | 87 | 0 | 54 | 2.3 | 271 | 428 | 89 | 14:27:04 | 81 | 6:28:00 | 81 | 87 | 16:24:02 | 82 | 6:50:02 | 82 | 33.5 | 26.85 | 23.5 | |
| 08/12/2026 | 224 | 96 | 15:58:00 | 74 | 3:25:04 | 81 | 100 | 3:42:03 | 47 | 16:03:00 | 81 | 0 | 75 | 3.1 | 274 | 478 | 89 | 15:40:05 | 82 | 6:15:05 | 82 | 87 | 16:54:03 | 82 | 7:15:01 | 82 | 35 | 26.81 | 25 | |
| 08/13/2026 | 225 | 97 | 15:02:03 | 76 | 1:19:02 | 83 | 99 | 23:33:05 | 45 | 15:46:03 | 80 | 0 | 67 | 2.8 | 261 | 441 | 90 | 15:58:05 | 82 | 6:17:04 | 82 | 88 | 16:51:05 | 83 | 6:57:05 | 83 | 36.5 | 26.78 | 26.5 | |
| 08/14/2026 | 226 | 98 | 15:55:01 | 75 | 23:59:04 | 82 | 99 | 0:57:04 | 38 | 16:16:05 | 80 | 0 | 68 | 2.8 | 277 | 527 | 91 | 15:29:00 | 82 | 6:10:00 | 82 | 88 | 16:48:05 | 83 | 7:05:01 | 83 | 36.5 | 26.75 | 26.5 | |
| 08/15/2026 | 227 | 99 | 16:08:01 | 70 | 5:26:03 | 77 | 100 | 5:46:01 | 33 | 15:15:02 | 86 | 0 | 47 | 2.0 | 325 | 555 | 91 | 15:17:00 | 81 | 6:13:00 | 81 | 88 | 17:08:00 | 82 | 7:09:05 | 82 | 34.5 | 26.71 | 24.5 | |
| 08/16/2026 | 228 | 101 | 16:17:00 | 73 | 4:00:02 | 82 | 99 | 4:21:04 | 38 | 16:10:00 | 78 | 0 | 55 | 2.3 | 276 | 525 | 91 | 15:06:02 | 82 | 6:19:02 | 82 | 89 | 17:21:02 | 83 | 6:59:00 | 83 | 37 | 26.68 | 27 | |
| 08/17/2026 | 229 | 102 | 14:50:04 | 75 | 23:53:05 | 86 | 94 | 23:58:02 | 31 | 14:43:05 | 70 | 0 | 127 | 5.3 | 283 | 547 | 90 | 14:40:02 | 83 | 6:05:00 | 83 | 88 | 15:59:01 | 84 | 7:33:02 | 84 | 38.5 | 26.64 | 28.5 | |
| 08/18/2026 | 230 | 97 | 15:40:01 | 73 | 4:21:05 | 77 | 98 | 5:39:03 | 44 | 15:37:04 | 92 | 0 | 38 | 1.6 | 21 | 426 | 91 | 15:09:05 | 82 | 5:55:04 | 82 | 88 | 16:27:02 | 83 | 6:39:00 | 83 | 35 | 26.61 | 25 | |
| 08/19/2026 | 231 | 101 | 13:13:03 | 73 | 14:36:01 | 82 | 99 | 15:15:03 | 40 | 13:05:03 | 75 | 0.39 | 84 | 3.5 | 227 | 397 | 90 | 13:34:05 | 82 | 6:04:04 | 82 | 87 | 14:17:03 | 83 | 6:58:01 | 83 | 37 | 26.57 | 27 | |
| 08/20/2026 | 232 | 99 | 15:22:03 | 76 | 5:20:03 | 81 | 90 | 5:19:00 | 46 | 15:17:05 | 79 | 0 | 79 | 3.3 | 261 | 448 | 91 | 14:14:01 | 81 | 6:32:04 | 81 | 88 | 16:24:02 | 82 | 7:18:01 | 82 | 37.5 | 26.54 | 27.5 | |
| 08/21/2026 | 233 | 94 | 13:50:02 | 73 | 5:19:05 | 76 | 95 | 23:59:05 | 48 | 13:45:03 | 88 | 0.04 | 74 | 3.1 | 308 | 495 | 91 | 14:21:03 | 81 | 6:35:03 | 81 | 88 | 15:55:00 | 82 | 7:37:00 | 82 | 33.5 | 26.5 | 23.5 | |
| 08/22/2026 | 234 | 96 | 14:35:02 | 70 | 5:38:00 | 75 | 99 | 4:00:00 | 42 | 11:11:00 | 89 | 0 | 53 | 2.2 | 334 | 525 | 91 | 15:24:03 | 81 | 6:15:02 | 81 | 88 | 16:12:00 | 82 | 7:11:01 | 82 | 33 | 26.47 | 23 | |
| 08/23/2026 | 235 | 93 | 14:47:01 | 72 | 5:44:02 | 75 | 97 | 5:10:02 | 45 | 15:22:00 | 91 | 0.02 | 54 | 2.2 | 338 | 516 | 91 | 14:18:03 | 82 | 6:38:04 | 82 | 88 | 15:52:00 | 83 | 7:42:00 | 83 | 32.5 | 26.43 | 22.5 | |
| 08/24/2026 | 236 | 91 | 13:55:04 | 72 | 1:39:00 | 74 | 98 | 23:08:02 | 48 | 11:56:01 | 88 | 0 | 42 | 1.7 | 343 | 411 | 88 | 14:28:04 | 82 | 6:47:04 | 82 | 86 | 16:33:02 | 83 | 7:36:03 | 83 | 31.5 | 26.4 | 21.5 | |
| 08/25/2026 | 237 | 95 | 13:41:02 | 71 | 2:23:04 | 75 | 99 | 3:44:02 | 38 | 13:42:00 | 96 | 0 | 42 | 1.7 | 323 | 517 | 90 | 14:09:03 | 81 | 6:15:04 | 81 | 87 | 16:10:01 | 81 | 6:52:02 | 81 | 33 | 26.36 | 23 | |
| 08/26/2026 | 238 | 98 | 13:48:00 | 72 | 19:30:00 | 79 | 98 | 4:25:01 | 35 | 14:17:05 | 92 | 0.25 | 75 | 3.1 | 256 | 383 | 89 | 14:23:00 | 82 | 23:50:03 | 82 | 87 | 15:13:03 | 83 | 7:11:03 | 83 | 35 | 26.33 | 25 | |
| 08/27/2026 | 239 | 90 | 15:02:02 | 72 | 2:56:03 | 73 | 99 | 3:53:05 | 57 | 16:21:02 | 96 | 0 | 53 | 2.2 | 313 | 355 | 87 | 15:18:03 | 81 | 5:54:01 | 81 | 85 | 17:07:03 | 81 | 7:12:04 | 81 | 31 | 26.29 | 21 | |
| 08/28/2026 | 240 | 92 | 12:15:01 | 69 | 23:59:00 | 77 | 99 | 3:21:03 | 32 | 15:59:03 | 91 | 0 | 66 | 2.8 | 354 | 503 | 87 | 15:20:00 | 80 | 6:20:03 | 80 | 85 | 16:39:03 | 81 | 7:12:04 | 81 | 30.5 | 26.26 | 20.5 | |
| 08/29/2026 | 241 | 95 | 15:22:02 | 66 | 5:48:01 | 72 | 98 | 23:57:03 | 39 | 10:29:05 | 86 | 0 | 33 | 1.4 | 11 | 538 | 89 | 15:34:04 | 77 | 6:28:05 | 78 | 87 | 16:39:03 | 79 | 7:13:04 | 79 | 30.5 | 26.22 | 20.5 | |
| 08/30/2026 | 242 | 93 | 14:21:00 | 72 | 4:57:05 | 78 | 99 | 5:08:02 | 47 | 14:04:00 | 90 | 0 | 47 | 2.0 | 130 | 410 | 88 | 14:32:04 | 80 | 6:04:02 | 80 | 86 | 15:07:01 | 81 | 6:59:00 | 81 | 32.5 | 26.19 | 22.5 | |
| Average | 94.33 | 70.53 | 77.3 | 98.4 | 45.27 | 87.37 | 0.09 | 61.47 | 463.53 | 89.23 | 80.7 | 80.77 | 86.83 | 81.6 | 81.6 | 32.43 | 26.19 | 22.43 | ||||||||||||
| Total | 2.81 | 973 | 785.67 | 673 |